PWSweather.com
Personal Weather Stations
Station Observations
ACURITE34
Igara Berio, San SebastianES 20018

Igara BerioSan SebastianES 20018

Lat: 43.304, Lon: -2.016

Elevation: 177

Station Type: Davis Vantage Pro2 Plus autofan

Latest ConditionsUpdated 2:10:15 AM GMT+01:01 Sunday, Jul 21, 2019
Currently Today's Max Today's Min Today's Average
Temperature 70.0°F21.1°C 72.0°F22.2°C 70.0°F21.1°C 71.4°F21.9°C
Dew Point 66.9°F19.4°C 67.3°F19.6°C 66.6°F19.2°C 66.8°F19.3°C
Winds 0.9 mph WSW1.4 kmh WSW 2.9 mph -4.7 kmh - - 1.1 mph 1.8 kmh
Wind Gusts 0.9 mph1.4 kmh 6.0 mph9.7 kmh - -
Humidity 90% 90% 83% 86%
Pressure 30.17 in1021.7 mb 30.18 in1022.0 mb 30.17 in1021.7 mb -
Hour Temp Dew Point Humidity Winds Wind Gusts Pressure Precip Precip Rate Daily Precip Total
02:10 AM 70.0°F21.1°C 66.9°F19.4°C 90% 0.9 mph WSW1.4 kmh WSW 0.9 mph1.4 kmh 30.17 in1021.7 mb 0.00 in0.0 mm 0.00 in0.0 mm 0.00 in0.0 mm
02:04 AM 70.0°F21.1°C 66.9°F19.4°C 90% 0.9 mph WSW1.4 kmh WSW 2.0 mph3.2 kmh 30.17 in1021.7 mb 0.00 in0.0 mm 0.00 in0.0 mm 0.00 in0.0 mm
01:59 AM 70.2°F21.2°C 67.1°F19.5°C 90% 0.9 mph WSW1.4 kmh WSW 2.0 mph3.2 kmh 30.17 in1021.7 mb 0.00 in0.0 mm 0.00 in0.0 mm 0.00 in0.0 mm
01:53 AM 70.2°F21.2°C 66.7°F19.3°C 89% 0.9 mph WSW1.4 kmh WSW 2.0 mph3.2 kmh 30.17 in1021.7 mb 0.00 in0.0 mm 0.00 in0.0 mm 0.00 in0.0 mm
01:48 AM 70.3°F21.3°C 66.9°F19.4°C 89% 0.9 mph WNW1.4 kmh WNW 0.9 mph1.4 kmh 30.17 in1021.7 mb 0.00 in0.0 mm 0.00 in0.0 mm 0.00 in0.0 mm
01:42 AM 70.5°F21.4°C 66.7°F19.3°C 88% Calm Calm 2.0 mph3.2 kmh 30.17 in1021.7 mb 0.00 in0.0 mm 0.00 in0.0 mm 0.00 in0.0 mm
01:37 AM 70.9°F21.6°C 66.7°F19.3°C 87% Calm Calm -- 30.17 in1021.7 mb 0.00 in0.0 mm 0.00 in0.0 mm 0.00 in0.0 mm
01:31 AM 71.4°F21.9°C 67.1°F19.5°C 86% Calm Calm 0.9 mph1.4 kmh 30.17 in1021.7 mb 0.00 in0.0 mm 0.00 in0.0 mm 0.00 in0.0 mm
01:25 AM 71.6°F22.0°C 66.9°F19.4°C 85% 0.9 mph NE1.4 kmh NE -- 30.17 in1021.7 mb 0.00 in0.0 mm 0.00 in0.0 mm 0.00 in0.0 mm
01:20 AM 71.6°F22.0°C 66.9°F19.4°C 85% 0.9 mph NE1.4 kmh NE 4.0 mph6.4 kmh 30.18 in1022.0 mb 0.00 in0.0 mm 0.00 in0.0 mm 0.00 in0.0 mm
01:14 AM 71.8°F22.1°C 66.7°F19.3°C 84% 0.9 mph NNE1.4 kmh NNE 2.0 mph3.2 kmh 30.18 in1022.0 mb 0.00 in0.0 mm 0.00 in0.0 mm 0.00 in0.0 mm
01:09 AM 71.8°F22.1°C 66.7°F19.3°C 84% 0.9 mph NE1.4 kmh NE 3.0 mph4.8 kmh 30.18 in1022.0 mb 0.00 in0.0 mm 0.00 in0.0 mm 0.00 in0.0 mm
01:03 AM 71.8°F22.1°C 66.7°F19.3°C 84% 0.9 mph NE1.4 kmh NE 0.9 mph1.4 kmh 30.18 in1022.0 mb 0.00 in0.0 mm 0.00 in0.0 mm 0.00 in0.0 mm
12:58 AM 71.8°F22.1°C 66.7°F19.3°C 84% 0.9 mph NE1.4 kmh NE 4.0 mph6.4 kmh 30.18 in1022.0 mb 0.00 in0.0 mm 0.00 in0.0 mm 0.00 in0.0 mm
12:52 AM 72.0°F22.2°C 67.3°F19.6°C 85% 0.9 mph NNE1.4 kmh NNE 2.9 mph4.7 kmh 30.18 in1022.0 mb 0.00 in0.0 mm 0.00 in0.0 mm 0.00 in0.0 mm
12:47 AM 72.0°F22.2°C 66.9°F19.4°C 84% 0.9 mph NE1.4 kmh NE 4.0 mph6.4 kmh 30.18 in1022.0 mb 0.00 in0.0 mm 0.00 in0.0 mm 0.00 in0.0 mm
12:41 AM 72.0°F22.2°C 66.9°F19.4°C 84% 0.9 mph N1.4 kmh N 0.9 mph1.4 kmh 30.18 in1022.0 mb 0.00 in0.0 mm 0.00 in0.0 mm 0.00 in0.0 mm
12:35 AM 72.0°F22.2°C 66.6°F19.2°C 83% 0.9 mph NE1.4 kmh NE 2.9 mph4.7 kmh 30.18 in1022.0 mb 0.00 in0.0 mm 0.00 in0.0 mm 0.00 in0.0 mm
12:30 AM 72.0°F22.2°C 66.9°F19.4°C 84% 2.0 mph NE3.2 kmh NE 2.0 mph3.2 kmh 30.18 in1022.0 mb 0.00 in0.0 mm 0.00 in0.0 mm 0.00 in0.0 mm
12:24 AM 72.0°F22.2°C 66.6°F19.2°C 83% 2.9 mph N4.7 kmh N 2.9 mph4.7 kmh 30.18 in1022.0 mb 0.00 in0.0 mm 0.00 in0.0 mm 0.00 in0.0 mm
12:19 AM 72.0°F22.2°C 66.6°F19.2°C 83% 2.9 mph N4.7 kmh N 6.0 mph9.7 kmh 30.18 in1022.0 mb 0.00 in0.0 mm 0.00 in0.0 mm 0.00 in0.0 mm
12:13 AM 72.0°F22.2°C 66.9°F19.4°C 84% 2.0 mph NE3.2 kmh NE 5.0 mph8.0 kmh 30.18 in1022.0 mb 0.00 in0.0 mm 0.00 in0.0 mm 0.00 in0.0 mm
12:08 AM 72.0°F22.2°C 66.9°F19.4°C 84% 2.0 mph NE3.2 kmh NE 2.9 mph4.7 kmh 30.18 in1022.0 mb 0.00 in0.0 mm 0.00 in0.0 mm 0.00 in0.0 mm
12:02 AM 72.0°F22.2°C 66.9°F19.4°C 84% 2.0 mph NNE3.2 kmh NNE 6.0 mph9.7 kmh 30.18 in1022.0 mb 0.00 in0.0 mm 0.00 in0.0 mm 0.00 in0.0 mm